Time;durP1;ratioP1;P1;durP2;ratioP2;P2;SDS_P1;SDS_P2;PMS_P1;PMS_P2;Temp;Humidity;BMP_temperature;BMP_pressure;BME280_temperature;BME280_humidity;BME280_pressure;Samples;Min_cycle;Max_cycle;Signal;HPM_P1;HPM_P2
2022/04/10 00:02:14;;;;;;;18.63;8.50;;;;;;;7.83;61.61;101572.50;5074197;28;20059;-59
2022/04/10 00:04:42;;;;;;;13.35;7.75;;;;;;;7.57;62.01;101576.34;5063476;28;20060;-59
2022/04/10 00:07:11;;;;;;;17.50;8.98;;;;;;;7.46;62.28;101575.50;5071241;28;20059;-60
2022/04/10 00:09:38;;;;;;;14.65;8.27;;;;;;;7.58;62.19;101565.09;5067130;28;20060;-60
2022/04/10 00:12:06;;;;;;;19.77;8.82;;;;;;;7.48;62.29;101567.81;5072618;28;20049;-59
2022/04/10 00:14:33;;;;;;;18.10;8.63;;;;;;;7.31;63.04;101563.69;5065341;28;20527;-60
2022/04/10 00:17:01;;;;;;;17.88;9.27;;;;;;;7.32;62.70;101563.41;5060719;28;20044;-59
2022/04/10 00:19:28;;;;;;;17.58;8.75;;;;;;;7.42;62.76;101562.63;5064552;28;20053;-59
2022/04/10 00:21:55;;;;;;;14.05;7.75;;;;;;;7.46;62.72;101564.53;5071412;28;20056;-58
2022/04/10 00:24:25;;;;;;;13.18;7.70;;;;;;;7.34;62.46;101554.94;5067525;28;20048;-55
2022/04/10 00:26:52;;;;;;;15.18;8.35;;;;;;;7.37;62.85;101554.38;5069011;28;20511;-58
2022/04/10 00:29:20;;;;;;;13.70;8.05;;;;;;;7.37;62.26;101557.13;5089800;28;20123;-59
2022/04/10 00:31:47;;;;;;;14.48;7.25;;;;;;;7.23;62.10;101554.09;5070658;28;20522;-60
2022/04/10 00:34:15;;;;;;;14.82;6.80;;;;;;;7.26;61.82;101556.28;5073715;28;20059;-59
2022/04/10 00:36:42;;;;;;;14.98;7.35;;;;;;;7.12;62.23;101559.81;5071797;28;20045;-56
2022/04/10 00:39:10;;;;;;;14.95;7.38;;;;;;;6.96;62.47;101560.88;5046361;28;20075;-56
2022/04/10 00:41:38;;;;;;;14.98;7.95;;;;;;;7.17;62.33;101552.44;5058293;28;20043;-60
2022/04/10 00:44:10;;;;;;;14.85;7.47;;;;;;;7.27;62.30;101557.13;5064936;28;20049;-58
2022/04/10 00:46:38;;;;;;;12.88;7.57;;;;;;;7.31;62.23;101561.78;5064513;28;20064;-58
2022/04/10 00:49:06;;;;;;;13.30;7.32;;;;;;;7.11;62.73;101561.75;5066446;28;20041;-57
2022/04/10 00:51:50;;;;;;;14.98;7.05;;;;;;;7.19;62.54;101554.88;5065593;28;20056;-58
2022/04/10 00:54:20;;;;;;;12.77;7.32;;;;;;;7.22;61.66;101557.13;5072246;28;20047;-58
2022/04/10 00:56:48;;;;;;;11.40;6.33;;;;;;;6.82;62.50;101557.78;5073292;28;20049;-59
2022/04/10 00:59:15;;;;;;;15.88;6.72;;;;;;;6.93;62.51;101561.41;5068717;28;20040;-60
2022/04/10 01:01:44;;;;;;;10.40;6.47;;;;;;;6.56;61.81;101562.34;5075291;28;20041;-56
2022/04/10 01:04:31;;;;;;;14.50;6.30;;;;;;;6.82;62.02;101560.53;5064061;28;20053;-60
2022/04/10 01:07:00;;;;;;;15.27;6.30;;;;;;;7.19;61.14;101557.63;5066811;28;20060;-59
2022/04/10 01:09:28;;;;;;;13.27;6.40;;;;;;;7.14;60.70;101557.63;5075856;28;20048;-59
2022/04/10 01:11:55;;;;;;;11.73;6.20;;;;;;;7.12;61.10;101557.91;5073153;28;20041;-58
2022/04/10 01:14:25;;;;;;;10.68;6.70;;;;;;;6.94;61.10;101555.63;5067206;28;20040;-59
2022/04/10 01:16:52;;;;;;;11.73;6.97;;;;;;;6.90;60.92;101551.81;5072100;28;20056;-59
2022/04/10 01:19:21;;;;;;;13.65;7.38;;;;;;;6.38;61.48;101557.31;5050745;28;20060;-58
2022/04/10 01:21:51;;;;;;;;;;;;;;;6.39;61.89;101556.25;5057574;28;20049;-57
2022/04/10 01:24:19;;;;;;;11.32;5.82;;;;;;;6.74;61.57;101556.41;5067947;28;19947;-58
2022/04/10 01:26:47;;;;;;;12.95;6.68;;;;;;;7.02;60.75;101563.34;5070777;28;20060;-58
2022/04/10 01:29:19;;;;;;;13.35;6.80;;;;;;;7.07;60.55;101560.63;5087162;28;20048;-59
2022/04/10 01:31:46;;;;;;;13.50;6.15;;;;;;;7.11;60.80;101555.44;5070202;28;20041;-57
2022/04/10 01:34:15;;;;;;;11.25;6.00;;;;;;;6.85;60.91;101563.56;5068524;28;20045;-60
2022/04/10 01:36:44;;;;;;;11.02;5.65;;;;;;;6.76;61.19;101561.63;5069726;28;20064;-59
2022/04/10 01:39:15;;;;;;;10.85;5.72;;;;;;;6.66;61.04;101561.56;5074192;28;20039;-61
2022/04/10 01:41:47;;;;;;;11.63;5.93;;;;;;;6.30;61.96;101555.09;5087664;28;20059;-61
2022/04/10 01:44:15;;;;;;;13.93;5.82;;;;;;;6.55;61.28;101555.22;5048117;28;20053;-58
2022/04/10 01:46:42;;;;;;;13.93;5.85;;;;;;;6.40;61.68;101554.31;5074883;28;20057;-60
2022/04/10 01:49:11;;;;;;;10.45;5.50;;;;;;;6.56;61.23;101556.88;5065706;28;20059;-58
2022/04/10 01:51:39;;;;;;;13.35;6.15;;;;;;;6.73;61.01;101546.53;5073397;28;20369;-58
2022/04/10 01:54:06;;;;;;;12.65;5.47;;;;;;;6.79;60.79;101537.25;5072002;28;20526;-60
2022/04/10 01:56:34;;;;;;;13.10;6.10;;;;;;;6.55;61.08;101544.28;5073650;28;20055;-59
2022/04/10 01:59:03;;;;;;;12.75;5.45;;;;;;;6.54;61.46;101537.16;5067426;28;20056;-60
2022/04/10 02:01:31;;;;;;;15.05;5.80;;;;;;;6.74;60.45;101537.25;5086371;28;20056;-58
2022/04/10 02:03:58;;;;;;;13.32;5.82;;;;;;;6.50;61.02;101532.50;5071092;28;20515;-59
2022/04/10 02:06:25;;;;;;;11.57;5.07;;;;;;;6.59;60.85;101537.16;5066910;28;20052;-57
2022/04/10 02:08:53;;;;;;;12.82;5.55;;;;;;;6.39;61.48;101542.56;5062152;28;20053;-58
2022/04/10 02:11:21;;;;;;;12.40;5.47;;;;;;;6.35;62.08;101541.44;5067198;28;20048;-58
2022/04/10 02:13:53;;;;;;;12.80;5.80;;;;;;;6.49;62.03;101539.03;5074155;28;20056;-57
2022/04/10 02:16:20;;;;;;;11.07;5.45;;;;;;;6.54;61.89;101536.31;5071000;28;20052;-60
2022/04/10 02:18:48;;;;;;;13.63;6.13;;;;;;;6.34;62.96;101539.78;5073293;28;20056;-55
2022/04/10 02:21:16;;;;;;;12.38;5.80;;;;;;;6.12;63.70;101544.56;5072746;28;20056;-59
2022/04/10 02:23:44;;;;;;;12.80;6.30;;;;;;;6.40;63.39;101544.19;5072577;28;20056;-58
2022/04/10 02:26:14;;;;;;;13.05;6.25;;;;;;;6.29;63.95;101539.78;5070766;28;20041;-59
2022/04/10 02:28:42;;;;;;;10.65;5.68;;;;;;;6.31;63.81;101537.56;5070869;28;20040;-59
2022/04/10 02:31:09;;;;;;;13.93;6.00;;;;;;;6.05;64.86;101537.69;5070476;28;20500;-59
2022/04/10 02:33:37;;;;;;;11.02;5.60;;;;;;;5.96;65.57;101534.63;5064223;28;20063;-57
2022/04/10 02:36:05;;;;;;;14.98;6.10;;;;;;;6.22;65.45;101546.56;5063665;28;20379;-59
2022/04/10 02:38:35;;;;;;;13.23;6.07;;;;;;;6.36;64.35;101537.59;5069711;28;20048;-59
2022/04/10 02:41:04;;;;;;;12.25;5.57;;;;;;;6.54;63.69;101536.31;5046411;28;20045;-59
2022/04/10 02:43:31;;;;;;;13.77;6.10;;;;;;;6.40;63.66;101541.44;5065000;28;20059;-58
2022/04/10 02:46:03;;;;;;;10.13;5.53;;;;;;;6.66;63.34;101550.59;5067951;28;20555;-58
2022/04/10 02:48:33;;;;;;;15.23;6.47;;;;;;;6.55;62.86;101546.19;5072339;28;20068;-58
2022/04/10 02:51:03;;;;;;;14.75;6.00;;;;;;;6.50;63.43;101546.16;5083852;28;20075;-58
2022/04/10 02:53:30;;;;;;;12.20;5.85;;;;;;;6.49;63.68;101548.06;5070413;28;20052;-57
2022/04/10 02:55:58;;;;;;;11.82;6.00;;;;;;;6.76;62.83;101547.94;5074498;28;20055;-59
2022/04/10 02:58:26;;;;;;;12.40;5.57;;;;;;;6.22;63.29;101552.88;5066352;28;20053;-59
2022/04/10 03:00:53;;;;;;;12.23;6.30;;;;;;;5.98;65.47;101557.06;5066831;28;20048;-57
2022/04/10 03:03:21;;;;;;;11.85;5.68;;;;;;;6.17;64.52;101552.00;5067181;28;20051;-59
2022/04/10 03:05:49;;;;;;;10.13;5.55;;;;;;;5.79;65.64;101542.13;5064810;28;20064;-59
2022/04/10 03:08:17;;;;;;;14.93;6.55;;;;;;;5.87;66.32;101547.16;5070183;28;20044;-60
2022/04/10 03:10:45;;;;;;;11.80;6.00;;;;;;;6.12;66.17;101546.50;5050205;28;20052;-58
2022/04/10 03:13:12;;;;;;;13.35;5.68;;;;;;;6.31;65.11;101548.50;5069941;28;20044;-58
2022/04/10 03:15:39;;;;;;;16.23;6.28;;;;;;;6.43;65.12;101553.78;5055795;28;20063;-58
2022/04/10 03:18:07;;;;;;;13.88;5.72;;;;;;;5.97;66.00;101549.13;5051410;28;20500;-59
2022/04/10 03:20:34;;;;;;;13.98;6.22;;;;;;;5.80;67.35;101551.97;5073140;28;20059;-59
2022/04/10 03:23:08;;;;;;;14.70;6.35;;;;;;;5.64;67.98;101561.97;5079159;28;20037;-59
2022/04/10 03:25:36;;;;;;;11.85;5.47;;;;;;;5.93;67.06;101559.75;5073062;28;20106;-59
2022/04/10 03:28:04;;;;;;;11.75;5.90;;;;;;;5.95;66.79;101559.47;5064939;28;20412;-57
2022/04/10 03:30:31;;;;;;;10.75;5.90;;;;;;;5.80;68.12;101554.72;5072981;28;20056;-56
2022/04/10 03:32:59;;;;;;;10.65;6.22;;;;;;;5.72;68.20;101563.38;5078707;28;20040;-57
2022/04/10 03:35:33;;;;;;;11.00;5.47;;;;;;;6.00;67.69;101557.63;5058863;28;20053;-60
2022/04/10 03:38:05;;;;;;;11.32;5.63;;;;;;;5.68;68.44;101551.34;5053360;28;20393;-59
2022/04/10 03:40:33;;;;;;;12.65;5.78;;;;;;;5.43;69.40;101557.41;5082173;28;20056;-60
2022/04/10 03:43:01;;;;;;;12.20;6.35;;;;;;;5.64;69.23;101556.50;5069253;28;20059;-59
2022/04/10 03:45:29;;;;;;;10.70;5.32;;;;;;;6.13;67.76;101565.38;5064437;28;20069;-56
2022/04/10 03:47:56;;;;;;;14.48;5.30;;;;;;;6.11;67.64;101564.81;5051170;28;20400;-57
2022/04/10 03:50:26;;;;;;;14.10;5.97;;;;;;;5.87;67.64;101562.72;5070778;28;20040;-56
2022/04/10 03:53:09;;;;;;;13.07;5.57;;;;;;;5.58;68.95;101565.72;5069854;28;20055;-57
2022/04/10 03:55:42;;;;;;;9.55;5.10;;;;;;;5.44;69.69;101558.22;5047468;28;20044;-60
2022/04/10 03:58:09;;;;;;;13.38;5.25;;;;;;;5.11;70.36;101561.97;5063571;28;20436;-56
2022/04/10 04:00:37;;;;;;;11.88;5.50;;;;;;;5.39;70.27;101555.44;5065545;28;20064;-57
2022/04/10 04:03:10;;;;;;;11.75;5.43;;;;;;;5.20;70.59;101563.16;5056977;28;20049;-60
2022/04/10 04:05:38;;;;;;;10.95;5.38;;;;;;;4.94;71.28;101563.13;5061347;28;20048;-57
2022/04/10 04:08:10;;;;;;;13.07;5.65;;;;;;;4.97;71.56;101558.00;5049673;28;20049;-57
2022/04/10 04:10:37;;;;;;;11.27;5.60;;;;;;;5.11;71.38;101561.97;5071441;28;20048;-59
2022/04/10 04:13:09;;;;;;;13.07;5.55;;;;;;;5.35;70.49;101549.66;5089150;28;20507;-56
2022/04/10 04:15:39;;;;;;;10.25;4.95;;;;;;;5.57;69.87;101542.22;5068459;28;20518;-58
2022/04/10 04:18:18;;;;;;;13.82;5.05;;;;;;;5.55;69.78;101555.31;5061936;28;20644;-58
2022/04/10 04:20:46;;;;;;;10.75;4.88;;;;;;;5.31;70.37;101556.75;5082738;28;20044;-58
2022/04/10 04:23:19;;;;;;;11.95;4.95;;;;;;;5.14;70.82;101555.19;5067336;28;20047;-59
2022/04/10 04:25:49;;;;;;;12.23;5.45;;;;;;;5.55;70.22;101558.06;5064803;28;20464;-57
2022/04/10 04:28:36;;;;;;;12.98;5.10;;;;;;;5.51;69.16;101565.09;5068240;28;20056;-59
2022/04/10 04:31:09;;;;;;;13.68;5.05;;;;;;;5.31;70.08;101561.38;5072795;28;20407;-59
2022/04/10 04:33:37;;;;;;;10.98;4.88;;;;;;;5.34;69.89;101566.31;5074489;28;20154;-57
2022/04/10 04:36:05;;;;;;;11.32;5.07;;;;;;;5.36;69.71;101564.16;5073334;28;20056;-58
2022/04/10 04:38:32;;;;;;;11.68;4.93;;;;;;;5.55;69.37;101565.41;5072539;28;20060;-59
2022/04/10 04:40:59;;;;;;;12.15;5.50;;;;;;;5.65;69.17;101573.69;5046198;28;20694;-60
2022/04/10 04:43:27;;;;;;;11.35;4.90;;;;;;;5.79;68.33;101568.66;5068712;28;20060;-60
2022/04/10 04:45:54;;;;;;;16.08;5.10;;;;;;;5.72;68.30;101577.88;5063195;28;20036;-58
2022/04/10 04:48:22;;;;;;;14.40;5.30;;;;;;;5.61;68.72;101584.31;5061272;28;20056;-59
2022/04/10 04:50:50;;;;;;;9.45;5.20;;;;;;;5.54;69.12;101586.44;5071760;28;20051;-58
2022/04/10 04:53:22;;;;;;;9.63;5.18;;;;;;;5.54;69.26;101594.63;5070611;28;20052;-57
2022/04/10 04:55:50;;;;;;;16.10;5.35;;;;;;;5.22;70.61;101601.16;5073538;28;20059;-57
2022/04/10 04:58:23;;;;;;;10.07;5.03;;;;;;;5.39;70.13;101605.44;5066119;28;20064;-60
2022/04/10 05:00:51;;;;;;;10.55;5.03;;;;;;;5.37;70.14;101599.41;5052867;28;20385;-55
2022/04/10 05:03:20;;;;;;;9.60;4.90;;;;;;;5.36;70.10;101602.38;5069450;28;20064;-60
2022/04/10 05:05:56;;;;;;;13.70;4.97;;;;;;;5.63;69.10;101598.56;5063333;28;20045;-61
2022/04/10 05:08:28;;;;;;;10.95;4.70;;;;;;;5.76;68.82;101605.50;5084617;28;20380;-59
2022/04/10 05:10:58;;;;;;;12.70;5.30;;;;;;;5.71;68.55;101598.09;5085464;28;20040;-61
2022/04/10 05:13:27;;;;;;;9.77;4.45;;;;;;;5.63;68.99;101595.81;5072469;28;20491;-60
2022/04/10 05:15:54;;;;;;;10.05;4.68;;;;;;;5.74;68.06;101594.84;5066054;28;20380;-61
2022/04/10 05:18:26;;;;;;;12.98;4.63;;;;;;;5.77;68.57;101601.69;5082402;28;20420;-60
2022/04/10 05:20:54;;;;;;;9.02;4.10;;;;;;;5.90;68.28;101604.03;5069438;28;20048;-58
2022/04/10 05:23:24;;;;;;;8.32;4.32;;;;;;;5.80;68.41;101603.91;5068212;28;20045;-59
2022/04/10 05:26:02;;;;;;;11.10;4.43;;;;;;;5.91;68.16;101605.66;5061315;28;20060;-60
2022/04/10 05:28:34;;;;;;;17.27;6.93;;;;;;;6.03;67.34;101602.78;5049339;28;20047;-60
2022/04/10 05:31:03;;;;;;;16.25;7.60;;;;;;;5.98;67.66;101600.81;5072201;28;20060;-59
2022/04/10 05:33:35;;;;;;;14.57;5.88;;;;;;;5.84;67.79;101607.78;5068831;28;20412;-59
2022/04/10 05:36:03;;;;;;;15.77;5.13;;;;;;;5.98;67.45;101609.00;5054327;28;20104;-57
2022/04/10 05:38:33;;;;;;;;;;;;;;;5.96;67.84;101619.41;5072767;28;20068;-57
2022/04/10 05:41:00;;;;;;;14.35;5.57;;;;;;;6.04;67.08;101629.00;5076311;28;19921;-60
2022/04/10 05:43:31;;;;;;;11.95;5.00;;;;;;;5.82;67.29;101628.25;5075791;28;20519;-59
2022/04/10 05:45:59;;;;;;;12.48;4.78;;;;;;;5.41;68.49;101630.59;5071073;28;20040;-57
2022/04/10 05:48:26;;;;;;;14.90;5.60;;;;;;;5.64;67.98;101626.72;5065519;28;20059;-56
2022/04/10 05:50:54;;;;;;;11.73;5.60;;;;;;;5.75;68.10;101632.00;5085815;28;20051;-58
2022/04/10 05:53:24;;;;;;;14.07;5.38;;;;;;;5.88;67.50;101625.34;5067674;28;20415;-60
2022/04/10 05:55:51;;;;;;;16.55;5.40;;;;;;;5.86;67.92;101627.50;5070760;28;20496;-57
2022/04/10 05:58:23;;;;;;;13.55;5.80;;;;;;;5.97;67.41;101642.09;5039020;28;20072;-56
2022/04/10 06:00:53;;;;;;;10.95;5.43;;;;;;;5.96;67.33;101635.81;5070198;28;20143;-55
2022/04/10 06:03:22;;;;;;;14.35;5.47;;;;;;;6.13;67.36;101633.75;5073041;28;20364;-58
2022/04/10 06:05:52;;;;;;;10.65;5.35;;;;;;;6.06;67.35;101635.06;5073162;28;20044;-59
2022/04/10 06:08:25;;;;;;;12.30;5.55;;;;;;;6.06;66.99;101640.53;5066668;28;20059;-59
2022/04/10 06:10:53;;;;;;;12.30;5.80;;;;;;;5.95;67.10;101633.31;5085887;28;20060;-57
2022/04/10 06:13:21;;;;;;;13.13;5.32;;;;;;;6.37;66.81;101637.75;5075993;28;20067;-57
2022/04/10 06:16:08;;;;;;;9.82;5.28;;;;;;;6.25;66.40;101649.97;5065279;28;20049;-57
2022/04/10 06:18:37;;;;;;;10.75;5.45;;;;;;;6.18;66.43;101644.72;5043036;28;20492;-61
2022/04/10 06:21:05;;;;;;;14.73;6.20;;;;;;;6.28;66.46;101642.06;5057704;28;20594;-59
2022/04/10 06:23:34;;;;;;;13.43;5.88;;;;;;;6.58;65.63;101645.03;5072869;28;20052;-56
2022/04/10 06:26:10;;;;;;;13.57;6.10;;;;;;;6.62;65.58;101643.41;5074094;28;20055;-60
2022/04/10 06:28:37;;;;;;;13.23;6.32;;;;;;;6.84;64.51;101645.97;5077048;28;20063;-58
2022/04/10 06:31:09;;;;;;;11.52;6.22;;;;;;;6.82;65.06;101648.97;5063731;28;20053;-57
2022/04/10 06:33:39;;;;;;;11.43;6.28;;;;;;;6.83;64.68;101642.41;5091342;28;20055;-58
2022/04/10 06:36:06;;;;;;;11.88;6.32;;;;;;;6.81;64.53;101644.63;5073506;28;20060;-59
2022/04/10 06:38:34;;;;;;;12.13;6.60;;;;;;;6.81;64.33;101652.00;5052773;28;20067;-57
2022/04/10 06:41:07;;;;;;;15.20;6.90;;;;;;;7.00;64.48;101641.41;5064160;28;20579;-55
2022/04/10 06:43:34;;;;;;;15.35;7.10;;;;;;;7.19;64.00;101642.56;5067926;28;20048;-55
2022/04/10 06:46:08;;;;;;;15.25;7.18;;;;;;;6.95;64.43;101650.41;5067656;28;20048;-55
2022/04/10 06:48:43;;;;;;;14.85;7.15;;;;;;;7.30;63.33;101641.53;5056543;28;20060;-56
2022/04/10 06:51:10;;;;;;;19.65;7.40;;;;;;;7.10;63.34;101639.53;5066582;28;20052;-57
2022/04/10 06:53:38;;;;;;;14.55;8.68;;;;;;;7.04;64.02;101637.88;5072785;28;20516;-55
2022/04/10 06:56:05;;;;;;;15.32;8.38;;;;;;;7.31;63.47;101643.16;5068735;28;20391;-54
2022/04/10 06:58:37;;;;;;;12.32;8.30;;;;;;;7.44;63.12;101639.91;5069522;28;20495;-54
2022/04/10 07:01:05;;;;;;;20.30;11.38;;;;;;;7.55;62.46;101647.09;5058425;28;20044;-55
2022/04/10 07:03:33;;;;;;;20.65;11.00;;;;;;;7.63;61.96;101639.16;5074620;28;20060;-59
2022/04/10 07:06:03;;;;;;;20.73;10.52;;;;;;;7.84;61.88;101637.25;5052789;28;20052;-57
2022/04/10 07:08:37;;;;;;;19.92;10.52;;;;;;;7.81;61.56;101638.59;5083120;28;20053;-59
2022/04/10 07:11:04;;;;;;;19.92;10.52;;;;;;;7.88;61.13;101639.16;5058397;28;20486;-57
2022/04/10 07:13:32;;;;;;;20.80;11.15;;;;;;;7.95;60.78;101639.72;5070849;28;20436;-60
2022/04/10 07:16:00;;;;;;;23.48;12.90;;;;;;;7.97;61.04;101636.69;5055682;28;20055;-59
2022/04/10 07:18:28;;;;;;;20.52;11.35;;;;;;;7.72;61.39;101633.94;5067745;28;20610;-58
2022/04/10 07:21:00;;;;;;;22.02;11.75;;;;;;;7.53;61.96;101625.41;5051745;28;20052;-59
2022/04/10 07:23:43;;;;;;;19.70;10.85;;;;;;;7.69;60.77;101632.56;5074337;28;20048;-57
2022/04/10 07:26:31;;;;;;;16.85;10.63;;;;;;;7.86;60.69;101635.06;5074809;28;20373;-58
2022/04/10 07:29:03;;;;;;;19.15;10.27;;;;;;;8.07;60.24;101635.88;5068937;28;20053;-59
2022/04/10 07:31:31;;;;;;;15.93;8.90;;;;;;;8.10;58.84;101633.41;5073117;28;20085;-60
2022/04/10 07:33:58;;;;;;;17.17;7.68;;;;;;;8.10;57.96;101638.91;5073864;28;20041;-60
2022/04/10 07:36:49;;;;;;;19.10;7.78;;;;;;;8.22;56.89;101644.09;5046617;28;20060;-60
2022/04/10 07:39:17;;;;;;;15.45;6.97;;;;;;;8.18;57.14;101634.75;5072464;28;20053;-58
2022/04/10 07:41:53;;;;;;;11.80;4.75;;;;;;;8.21;55.12;101642.47;5067466;28;20067;-58
2022/04/10 07:44:27;;;;;;;10.80;4.18;;;;;;;8.00;54.38;101647.94;5068319;28;20052;-59
2022/04/10 07:49:41;;;;;;;12.73;4.13;;;;;;;8.32;53.65;101639.47;5064232;28;20057;-60
2022/04/10 07:52:11;;;;;;;8.40;3.95;;;;;;;8.57;53.61;101639.44;5063283;28;20492;-58
2022/04/10 07:54:47;;;;;;;10.70;3.90;;;;;;;8.54;52.42;101633.69;5061585;28;20056;-60
2022/04/10 07:57:16;;;;;;;9.63;3.92;;;;;;;8.49;53.06;101640.00;5073809;28;20063;-57
2022/04/10 07:59:48;;;;;;;10.65;3.45;;;;;;;8.61;52.21;101642.47;5072715;28;20052;-59
2022/04/10 08:02:25;;;;;;;8.25;3.30;;;;;;;8.46;52.01;101640.53;5059026;28;20048;-60
2022/04/10 08:04:52;;;;;;;12.50;4.80;;;;;;;8.79;50.82;101634.44;5069023;28;20531;-59
2022/04/10 08:07:35;;;;;;;13.40;4.57;;;;;;;8.82;50.85;101633.88;5067089;28;20052;-56
2022/04/10 08:10:03;;;;;;;12.48;4.55;;;;;;;8.95;50.92;101643.44;5078938;28;20060;-59
2022/04/10 08:12:30;;;;;;;9.77;3.88;;;;;;;8.91;50.79;101636.84;5066883;28;20061;-58
2022/04/10 08:14:58;;;;;;;11.05;4.35;;;;;;;8.89;50.80;101634.41;5069781;28;20045;-59
2022/04/10 08:17:25;;;;;;;11.32;4.70;;;;;;;9.00;50.87;101640.69;5073240;28;20048;-59
2022/04/10 08:19:52;;;;;;;13.50;4.28;;;;;;;8.90;49.70;101641.56;5073807;28;20052;-59
2022/04/10 08:22:26;;;;;;;10.80;4.20;;;;;;;9.02;49.48;101635.72;5071166;28;20060;-56
2022/04/10 08:24:53;;;;;;;8.32;3.70;;;;;;;9.03;49.39;101629.94;5070790;28;20056;-58
2022/04/10 08:27:21;;;;;;;9.80;3.70;;;;;;;8.92;49.39;101636.59;5068981;28;20059;-58
2022/04/10 08:29:53;;;;;;;9.25;3.70;;;;;;;9.01;49.37;101645.09;5084136;28;20048;-60
2022/04/10 08:32:21;;;;;;;9.85;3.90;;;;;;;9.21;49.26;101636.75;5077018;28;20059;-61
2022/04/10 08:34:48;;;;;;;13.00;3.85;;;;;;;9.03;49.01;101634.66;5074679;28;20040;-58
2022/04/10 08:37:15;;;;;;;7.65;3.85;;;;;;;9.02;49.62;101630.22;5074792;28;20048;-60
2022/04/10 08:39:43;;;;;;;12.38;3.65;;;;;;;9.13;49.35;101635.41;5071815;28;20044;-59
2022/04/10 08:42:10;;;;;;;10.23;3.85;;;;;;;9.10;48.63;101635.97;5071040;28;20032;-59
2022/04/10 08:44:37;;;;;;;12.70;3.90;;;;;;;9.13;48.98;101640.09;5063373;28;20058;-59
2022/04/10 08:47:05;;;;;;;18.00;6.55;;;;;;;9.39;48.74;101635.28;5069137;28;20406;-60
2022/04/10 08:49:33;;;;;;;13.68;5.47;;;;;;;9.50;48.70;101640.44;5074888;28;20064;-59
2022/04/10 08:52:00;;;;;;;8.80;3.88;;;;;;;9.78;50.04;101642.47;5068692;28;20054;-60
2022/04/10 08:54:27;;;;;;;10.55;3.80;;;;;;;9.59;49.27;101635.19;5063922;28;20052;-58
2022/04/10 08:56:57;;;;;;;10.98;3.95;;;;;;;9.48;49.79;101642.66;5063256;28;20053;-56
2022/04/10 08:59:24;;;;;;;11.90;3.83;;;;;;;9.69;49.58;101643.38;5066170;28;20063;-61
2022/04/10 09:01:53;;;;;;;7.97;3.85;;;;;;;9.86;49.93;101635.53;5071751;28;20634;-58
2022/04/10 09:04:20;;;;;;;11.50;3.78;;;;;;;9.91;51.41;101635.50;5063134;28;20045;-59
2022/04/10 09:07:03;;;;;;;10.48;3.85;;;;;;;9.93;49.26;101644.28;5072599;28;20052;-58
2022/04/10 09:09:31;;;;;;;10.88;3.85;;;;;;;10.10;48.82;101641.97;5070002;28;20067;-59
2022/04/10 09:11:59;;;;;;;13.90;3.90;;;;;;;10.26;49.99;101638.00;5068343;28;20072;-60
2022/04/10 09:14:29;;;;;;;11.90;4.00;;;;;;;10.00;49.14;101633.78;5070146;28;20048;-58
2022/04/10 09:17:14;;;;;;;15.30;4.47;;;;;;;10.32;48.98;101636.03;5069656;28;20049;-61
2022/04/10 09:19:52;;;;;;;9.77;3.78;;;;;;;10.37;48.68;101638.72;5066196;28;20049;-59
2022/04/10 09:22:35;;;;;;;11.10;3.50;;;;;;;10.31;48.96;101632.44;5076930;28;20529;-60
2022/04/10 09:25:13;;;;;;;9.35;4.43;;;;;;;10.44;47.75;101633.69;5078250;28;20484;-60
2022/04/10 09:27:45;;;;;;;10.20;4.00;;;;;;;10.40;48.79;101640.91;5078213;28;20523;-61
2022/04/10 09:30:14;;;;;;;9.95;4.05;;;;;;;10.79;47.56;101627.81;5076494;28;20044;-61
2022/04/10 09:32:51;;;;;;;10.93;4.18;;;;;;;11.08;47.42;101634.09;5075900;28;20056;-58
2022/04/10 09:35:20;;;;;;;10.20;3.80;;;;;;;10.96;46.82;101633.69;5078108;28;20488;-60
2022/04/10 09:37:48;;;;;;;12.52;4.28;;;;;;;10.90;46.40;101634.84;5072105;28;20052;-58
2022/04/10 09:40:34;;;;;;;14.07;7.53;;;;;;;10.57;46.62;101631.09;5068096;28;20056;-53
2022/04/10 09:43:10;;;;;;;10.43;4.00;;;;;;;10.41;47.11;101632.34;5069182;28;20521;-56
2022/04/10 09:45:39;;;;;;;8.63;4.07;;;;;;;10.58;45.83;101635.50;5066214;28;20085;-55
2022/04/10 09:48:19;;;;;;;8.18;3.53;;;;;;;10.76;45.34;101626.47;5067869;28;20048;-59
2022/04/10 09:50:48;;;;;;;10.65;3.80;;;;;;;10.89;46.78;101630.47;5074938;28;20041;-54
2022/04/10 09:53:15;;;;;;;12.40;3.90;;;;;;;11.01;45.97;101628.13;5072324;28;20618;-57
2022/04/10 09:55:43;;;;;;;9.93;3.60;;;;;;;11.01;45.27;101626.19;5076419;28;20041;-59
2022/04/10 09:58:13;;;;;;;16.48;4.72;;;;;;;10.83;44.49;101631.63;5077607;28;20071;-57
2022/04/10 10:00:44;;;;;;;6.68;3.60;;;;;;;10.95;46.20;101632.03;5070974;28;20052;-58
2022/04/10 10:03:13;;;;;;;10.45;4.25;;;;;;;11.37;45.20;101623.78;5073397;28;20048;-55
2022/04/10 10:05:41;;;;;;;9.03;4.20;;;;;;;11.22;45.58;101624.00;5077558;28;20044;-56
2022/04/10 10:08:08;;;;;;;10.48;4.32;;;;;;;11.33;45.32;101623.53;5076205;28;20051;-53
2022/04/10 10:10:37;;;;;;;9.57;4.47;;;;;;;11.48;44.62;101624.44;5068322;28;20048;-57
2022/04/10 10:13:06;;;;;;;11.57;4.07;;;;;;;11.54;44.04;101618.56;5076900;28;20083;-56
2022/04/10 10:15:38;;;;;;;7.72;3.63;;;;;;;11.55;43.44;101616.63;5070769;28;20049;-60
2022/04/10 10:18:11;;;;;;;10.02;4.07;;;;;;;11.72;44.37;101612.25;5074552;28;20059;-59
2022/04/10 10:20:40;;;;;;;9.57;4.00;;;;;;;11.61;45.04;101612.69;5076971;28;20514;-55
2022/04/10 10:23:12;;;;;;;10.57;4.45;;;;;;;11.35;45.10;101610.28;5076792;28;20613;-57
2022/04/10 10:25:52;;;;;;;10.18;3.80;;;;;;;11.17;45.18;101607.50;5074859;28;20045;-57
2022/04/10 10:28:26;;;;;;;10.10;4.53;;;;;;;11.28;45.55;101603.47;5077030;28;20059;-56
2022/04/10 10:31:21;;;;;;;10.80;3.85;;;;;;;11.25;45.46;101599.41;5075896;28;20056;-57
2022/04/10 10:33:55;;;;;;;8.23;3.78;;;;;;;11.60;44.84;101591.72;5071792;28;20044;-57
2022/04/10 10:36:26;;;;;;;8.68;3.58;;;;;;;11.80;44.48;101596.97;5076925;28;20056;-56
2022/04/10 10:38:55;;;;;;;9.43;4.22;;;;;;;11.30;44.25;101588.28;5076085;28;20063;-57
2022/04/10 10:41:22;;;;;;;10.43;3.15;;;;;;;11.63;44.00;101593.91;5075824;28;20403;-58
2022/04/10 10:43:50;;;;;;;11.73;3.17;;;;;;;11.90;44.15;101588.53;5067679;28;20048;-58
2022/04/10 10:46:26;;;;;;;9.02;3.00;;;;;;;11.77;42.60;101590.09;5076308;28;20056;-60
2022/04/10 10:49:11;;;;;;;7.90;3.30;;;;;;;11.73;42.88;101591.00;5076681;28;20071;-58
2022/04/10 10:51:41;;;;;;;7.75;3.28;;;;;;;11.95;42.64;101580.16;5066806;28;20500;-58
2022/04/10 10:54:12;;;;;;;10.77;3.08;;;;;;;12.20;42.40;101582.50;5074969;28;20052;-60
2022/04/10 10:56:41;;;;;;;9.55;3.45;;;;;;;12.28;42.42;101576.25;5074077;28;20044;-57
2022/04/10 10:59:24;;;;;;;8.65;3.67;;;;;;;12.41;41.76;101578.25;5070685;28;20040;-58
2022/04/10 11:02:04;;;;;;;8.13;3.90;;;;;;;11.67;42.19;101583.91;5076657;28;20385;-58
2022/04/10 11:04:46;;;;;;;7.97;4.30;;;;;;;11.53;42.62;101570.03;5076428;28;20047;-56
2022/04/10 11:07:19;;;;;;;13.80;6.43;;;;;;;11.97;43.50;101572.38;5075665;28;20049;-57
2022/04/10 11:10:09;;;;;;;10.80;5.22;;;;;;;12.01;42.17;101563.19;5065372;28;20048;-56
2022/04/10 11:13:01;;;;;;;6.68;3.40;;;;;;;12.06;42.92;101563.13;5057832;28;20053;-57
2022/04/10 11:15:34;;;;;;;8.27;4.30;;;;;;;12.40;41.32;101558.06;5075698;28;20049;-59
2022/04/10 11:18:23;;;;;;;10.35;3.60;;;;;;;12.41;41.34;101556.13;5075760;28;20045;-61
2022/04/10 11:20:54;;;;;;;10.98;4.00;;;;;;;12.70;41.83;101542.00;5075824;28;20064;-56
2022/04/10 11:23:29;;;;;;;7.53;3.05;;;;;;;12.76;41.04;101549.09;5072338;28;20064;-58
2022/04/10 11:26:06;;;;;;;9.68;3.28;;;;;;;12.59;41.81;101546.91;5061836;28;20051;-56
2022/04/10 11:29:02;;;;;;;8.07;3.33;;;;;;;12.73;41.69;101533.91;5075995;28;20051;-55
2022/04/10 11:31:35;;;;;;;6.00;3.05;;;;;;;12.87;41.21;101531.97;5080511;28;20045;-59
2022/04/10 11:34:28;;;;;;;8.48;3.42;;;;;;;12.81;39.96;101526.84;5074096;28;20059;-58
2022/04/10 11:36:57;;;;;;;8.82;3.80;;;;;;;12.80;40.57;101534.31;5070553;28;20060;-57
2022/04/10 11:39:28;;;;;;;9.02;3.47;;;;;;;12.68;39.42;101525.72;5074016;28;20415;-59
2022/04/10 11:42:03;;;;;;;7.07;3.00;;;;;;;12.94;39.79;101518.53;5072730;28;20049;-56
2022/04/10 11:44:31;;;;;;;7.25;3.58;;;;;;;13.04;39.58;101515.56;5081013;28;20060;-57